Time;durP1;ratioP1;P1;durP2;ratioP2;P2;SDS_P1;SDS_P2;PMS_P1;PMS_P2;Temp;Humidity;BMP_temperature;BMP_pressure;BME280_temperature;BME280_humidity;BME280_pressure;Samples;Min_cycle;Max_cycle;Signal;HPM_P1;HPM_P2
2023/08/20 00:00:31;;;;;;;13.50;2.67;;;;;;;18.72;100.00;102068.19;5028882;28;20675;-61
2023/08/20 00:03:10;;;;;;;11.43;2.70;;;;;;;18.79;100.00;102080.28;5030249;28;20542;-61
2023/08/20 00:05:36;;;;;;;10.98;2.50;;;;;;;18.87;100.00;102080.78;5028541;28;20057;-62
2023/08/20 00:08:02;;;;;;;8.48;2.80;;;;;;;18.96;100.00;102081.28;5030063;28;20095;-55
2023/08/20 00:10:27;;;;;;;11.52;2.70;;;;;;;19.03;100.00;102085.34;5027819;28;20033;-62
2023/08/20 00:12:53;;;;;;;14.25;2.72;;;;;;;19.09;100.00;102092.22;5029696;28;20010;-62
2023/08/20 00:15:19;;;;;;;8.68;2.53;;;;;;;19.15;100.00;102090.09;5028542;28;20112;-55
2023/08/20 00:17:45;;;;;;;11.27;3.00;;;;;;;19.18;100.00;102095.28;5029427;28;20104;-60
2023/08/20 00:20:14;;;;;;;9.43;2.03;;;;;;;19.21;100.00;102090.75;5028513;28;20143;-56
2023/08/20 00:22:42;;;;;;;9.57;2.25;;;;;;;19.17;100.00;102090.88;5028793;28;20021;-63
2023/08/20 00:25:08;;;;;;;15.65;3.72;;;;;;;19.12;100.00;102084.94;5027760;28;20092;-63
2023/08/20 00:27:33;;;;;;;12.82;2.88;;;;;;;19.08;100.00;102082.50;5028657;28;20560;-64
2023/08/20 00:29:59;;;;;;;7.25;1.85;;;;;;;19.02;100.00;102088.97;5027998;28;20029;-62
2023/08/20 00:32:24;;;;;;;10.00;2.45;;;;;;;18.89;100.00;102094.91;5029165;28;20152;-63
2023/08/20 00:34:49;;;;;;;9.02;1.92;;;;;;;18.86;100.00;102108.41;5028740;28;20032;-59
2023/08/20 00:37:15;;;;;;;11.65;2.45;;;;;;;18.79;100.00;102118.53;5029052;28;20045;-57
2023/08/20 00:39:40;;;;;;;10.18;2.47;;;;;;;18.76;100.00;102124.03;5027577;28;20026;-58
2023/08/20 00:42:07;;;;;;;9.75;2.42;;;;;;;18.76;100.00;102132.03;5029077;28;20033;-62
2023/08/20 00:44:32;;;;;;;13.32;2.40;;;;;;;18.78;100.00;102138.16;5028795;28;20048;-61
2023/08/20 00:47:00;;;;;;;13.32;2.95;;;;;;;18.80;100.00;102132.75;5028316;28;20037;-60
2023/08/20 00:49:25;;;;;;;8.07;2.35;;;;;;;18.84;100.00;102150.34;5028327;28;20045;-61
2023/08/20 00:51:51;;;;;;;10.75;2.38;;;;;;;18.83;100.00;102137.94;5028458;28;20036;-65
2023/08/20 00:54:16;;;;;;;8.30;2.67;;;;;;;18.85;100.00;102132.53;5026774;28;20025;-59
2023/08/20 00:56:42;;;;;;;11.90;2.60;;;;;;;18.84;100.00;102138.81;5028054;28;20398;-62
2023/08/20 00:59:07;;;;;;;9.38;3.28;;;;;;;18.79;100.00;102134.53;5028741;28;20104;-65
2023/08/20 01:01:33;;;;;;;10.32;2.33;;;;;;;18.74;100.00;102133.91;5027270;28;20029;-64
2023/08/20 01:03:58;;;;;;;11.68;2.63;;;;;;;18.66;100.00;102136.94;5028690;28;20101;-62
2023/08/20 01:06:44;;;;;;;11.32;2.95;;;;;;;18.62;100.00;102137.16;5026485;28;20033;-61
2023/08/20 01:09:33;;;;;;;9.50;2.65;;;;;;;18.60;100.00;102141.72;5027499;28;20033;-62
2023/08/20 01:14:26;;;;;;;11.38;2.47;;;;;;;18.43;100.00;102140.72;4987299;28;20583;-61
2023/08/20 01:16:51;;;;;;;12.70;2.65;;;;;;;18.40;100.00;102141.72;4988899;28;20030;-64
2023/08/20 01:19:18;;;;;;;10.05;2.50;;;;;;;18.42;100.00;102142.50;4988738;28;20026;-62
2023/08/20 01:21:53;;;;;;;9.73;2.03;;;;;;;18.49;100.00;102144.88;4987653;28;20496;-63
2023/08/20 01:24:43;;;;;;;12.43;2.50;;;;;;;18.47;100.00;102139.63;4988511;28;20044;-62
2023/08/20 01:27:14;;;;;;;7.75;2.00;;;;;;;18.46;100.00;102135.22;4988176;28;20042;-64
2023/08/20 01:29:39;;;;;;;5.68;2.10;;;;;;;18.46;100.00;102145.03;4988464;28;20034;-64
2023/08/20 01:32:05;;;;;;;9.38;2.50;;;;;;;18.44;100.00;102145.97;4988301;28;20396;-63
2023/08/20 01:34:31;;;;;;;9.02;2.55;;;;;;;18.42;100.00;102139.84;4987203;28;20085;-63
2023/08/20 01:36:56;;;;;;;15.68;3.17;;;;;;;18.37;100.00;102143.66;4986790;28;20022;-63
2023/08/20 01:39:21;;;;;;;13.27;3.00;;;;;;;18.36;100.00;102144.59;4988600;28;20032;-63
2023/08/20 01:41:47;;;;;;;12.50;2.83;;;;;;;18.31;100.00;102150.16;4987148;28;20014;-58
2023/08/20 01:44:12;;;;;;;12.88;3.03;;;;;;;18.26;100.00;102154.81;4989017;28;20030;-58
2023/08/20 01:46:37;;;;;;;12.85;3.28;;;;;;;18.16;100.00;102157.03;4987704;28;20422;-63
2023/08/20 01:49:03;;;;;;;10.65;3.25;;;;;;;18.07;100.00;102147.63;4988278;28;20117;-63
2023/08/20 01:51:29;;;;;;;14.95;3.05;;;;;;;18.05;100.00;102152.16;4988204;28;20026;-59
2023/08/20 01:53:54;;;;;;;10.98;3.50;;;;;;;18.04;100.00;102150.44;4987479;28;20034;-63
2023/08/20 01:56:19;;;;;;;10.07;2.95;;;;;;;17.96;100.00;102142.78;4988353;28;20500;-63
2023/08/20 01:58:45;;;;;;;9.93;2.60;;;;;;;17.91;100.00;102150.97;4986861;28;20034;-62
2023/08/20 02:01:10;;;;;;;8.23;2.13;;;;;;;17.91;100.00;102156.31;4988437;28;20058;-62
2023/08/20 02:03:38;;;;;;;11.32;2.38;;;;;;;17.90;100.00;102151.91;4985725;28;20041;-63
2023/08/20 02:06:03;;;;;;;6.60;2.35;;;;;;;17.90;100.00;102146.56;4987027;28;20552;-63
2023/08/20 02:08:28;;;;;;;9.02;2.65;;;;;;;17.89;100.00;102141.31;4986753;28;20030;-58
2023/08/20 02:11:03;;;;;;;12.50;2.42;;;;;;;17.87;100.00;102140.50;4987898;28;20080;-62
2023/08/20 02:13:29;;;;;;;9.98;2.47;;;;;;;17.87;100.00;102135.16;4987152;28;20042;-58
2023/08/20 02:15:59;;;;;;;12.65;2.72;;;;;;;17.81;100.00;102133.66;4988425;28;20142;-57
2023/08/20 02:18:25;;;;;;;15.27;2.88;;;;;;;17.78;100.00;102125.78;4987137;28;20023;-60
2023/08/20 02:20:50;;;;;;;12.18;2.58;;;;;;;17.73;100.00;102130.47;4988315;28;20128;-62
2023/08/20 02:23:16;;;;;;;9.88;2.55;;;;;;;17.71;100.00;102141.19;4987106;28;20050;-61
2023/08/20 02:25:43;;;;;;;12.23;2.42;;;;;;;17.68;100.00;102147.53;4987050;28;20848;-62
2023/08/20 02:28:08;;;;;;;12.38;2.80;;;;;;;17.67;100.00;102147.59;4987573;28;20049;-63
2023/08/20 02:30:41;;;;;;;9.38;2.80;;;;;;;17.73;100.00;102141.13;4987145;28;20378;-63
2023/08/20 02:33:06;;;;;;;7.35;2.33;;;;;;;17.77;100.00;102142.72;4986589;28;20027;-62
2023/08/20 02:35:32;;;;;;;9.57;2.53;;;;;;;17.78;100.00;102137.31;4988108;28;20081;-63
2023/08/20 02:37:57;;;;;;;14.13;2.70;;;;;;;17.80;100.00;102134.59;4987901;28;20069;-63
2023/08/20 02:40:22;;;;;;;15.73;3.05;;;;;;;17.80;100.00;102127.47;4986912;28;20476;-62
2023/08/20 02:42:48;;;;;;;10.02;2.50;;;;;;;17.80;100.00;102140.81;4988005;28;20022;-60
2023/08/20 02:45:13;;;;;;;8.68;2.53;;;;;;;17.74;100.00;102142.84;4987534;28;20113;-63
2023/08/20 02:47:38;;;;;;;13.00;2.58;;;;;;;17.67;100.00;102140.44;4987352;28;20022;-62
2023/08/20 02:50:04;;;;;;;8.32;2.72;;;;;;;17.63;100.00;102145.97;4986574;28;20468;-61
2023/08/20 02:52:30;;;;;;;10.75;2.63;;;;;;;17.58;100.00;102148.84;4985820;28;20027;-60
2023/08/20 02:54:55;;;;;;;9.13;2.42;;;;;;;17.55;100.00;102155.16;4985704;28;20034;-63
2023/08/20 02:57:21;;;;;;;11.95;3.08;;;;;;;17.56;100.00;102158.72;4987920;28;20034;-60
2023/08/20 02:59:46;;;;;;;12.60;2.90;;;;;;;17.55;100.00;102168.50;4986524;28;20244;-64
2023/08/20 03:02:12;;;;;;;9.75;2.58;;;;;;;17.64;100.00;102169.06;4987321;28;20037;-59
2023/08/20 03:04:37;;;;;;;15.25;3.08;;;;;;;17.62;100.00;102177.09;4986401;28;20030;-62
2023/08/20 03:07:02;;;;;;;11.82;3.35;;;;;;;17.63;100.00;102181.50;4988418;28;20454;-63
2023/08/20 03:09:28;;;;;;;8.73;2.97;;;;;;;17.65;100.00;102178.78;4986872;28;20038;-63
2023/08/20 03:11:53;;;;;;;11.13;2.95;;;;;;;17.65;100.00;102176.97;4991899;28;20380;-63
2023/08/20 03:14:18;;;;;;;12.02;3.28;;;;;;;17.68;100.00;102175.97;4991077;28;20493;-62
2023/08/20 03:16:44;;;;;;;10.65;2.70;;;;;;;17.73;100.00;102165.13;4992343;28;20034;-62
2023/08/20 03:19:09;;;;;;;8.50;2.50;;;;;;;17.74;100.00;102172.16;4991201;28;20030;-63
2023/08/20 03:21:34;;;;;;;13.75;3.00;;;;;;;17.71;100.00;102170.50;4991561;28;20129;-66
2023/08/20 03:24:00;;;;;;;9.52;2.97;;;;;;;17.70;100.00;102179.41;4990510;28;20065;-60
2023/08/20 03:26:25;;;;;;;10.70;2.75;;;;;;;17.66;100.00;102178.69;4990183;28;20130;-63
2023/08/20 03:28:51;;;;;;;14.73;2.97;;;;;;;17.60;100.00;102170.97;4991781;28;20620;-63
2023/08/20 03:31:17;;;;;;;12.07;3.10;;;;;;;17.54;100.00;102168.56;4990143;28;20031;-61
2023/08/20 03:33:42;;;;;;;8.60;2.97;;;;;;;17.49;100.00;102168.75;4990885;28;20122;-63
2023/08/20 03:36:07;;;;;;;10.23;2.92;;;;;;;17.41;100.00;102169.09;4990802;28;20507;-63
2023/08/20 03:38:33;;;;;;;11.90;3.10;;;;;;;17.39;100.00;102165.63;4990116;28;20076;-62
2023/08/20 03:40:58;;;;;;;17.70;2.80;;;;;;;17.35;100.00;102168.47;4991681;28;20026;-61
2023/08/20 03:43:23;;;;;;;10.25;2.70;;;;;;;17.30;100.00;102166.00;4990833;28;20392;-60
2023/08/20 03:45:52;;;;;;;10.55;3.10;;;;;;;17.26;100.00;102159.06;4991461;28;20092;-63
2023/08/20 03:48:17;;;;;;;11.73;3.03;;;;;;;17.30;100.00;102166.00;4990935;28;20025;-63
2023/08/20 03:50:42;;;;;;;9.23;3.40;;;;;;;17.30;100.00;102166.00;4991085;28;20038;-63
2023/08/20 03:53:08;;;;;;;13.00;3.65;;;;;;;17.26;100.00;102161.72;4990652;28;20041;-61
2023/08/20 03:55:33;;;;;;;14.90;3.65;;;;;;;17.23;100.00;102167.19;4988820;28;20031;-64
2023/08/20 03:57:58;;;;;;;12.20;3.38;;;;;;;17.15;100.00;102171.03;4990251;28;20037;-63
2023/08/20 04:00:24;;;;;;;14.15;3.35;;;;;;;17.09;100.00;102162.41;4990627;28;20027;-62
2023/08/20 04:02:49;;;;;;;18.88;3.40;;;;;;;17.02;100.00;102164.44;4983218;28;20118;-59
2023/08/20 04:05:15;;;;;;;9.63;3.13;;;;;;;16.95;100.00;102166.47;4971179;28;20027;-64
2023/08/20 04:07:40;;;;;;;7.22;3.08;;;;;;;16.89;100.00;102166.72;4974674;28;20034;-65
2023/08/20 04:10:07;;;;;;;14.05;3.33;;;;;;;16.86;100.00;102181.00;4989825;28;20034;-61
2023/08/20 04:12:33;;;;;;;10.13;3.20;;;;;;;16.85;100.00;102181.94;4989366;28;20046;-63
2023/08/20 04:14:58;;;;;;;10.70;3.75;;;;;;;16.82;100.00;102186.53;4991281;28;20066;-60
2023/08/20 04:17:23;;;;;;;12.73;4.00;;;;;;;16.76;100.00;102190.25;4990733;28;20050;-63
2023/08/20 04:19:49;;;;;;;15.95;3.88;;;;;;;16.70;100.00;102201.19;4991025;28;20089;-62
2023/08/20 04:22:14;;;;;;;13.27;3.40;;;;;;;16.67;100.00;102199.47;4990298;28;20037;-62
2023/08/20 04:24:40;;;;;;;13.18;3.58;;;;;;;16.65;100.00;102198.69;4989733;28;20465;-61
2023/08/20 04:27:05;;;;;;;12.15;3.60;;;;;;;16.63;100.00;102203.19;4992154;28;20192;-62
2023/08/20 04:29:31;;;;;;;10.18;3.50;;;;;;;16.66;100.00;102195.97;4991237;28;20034;-63
2023/08/20 04:31:56;;;;;;;14.98;3.67;;;;;;;16.75;100.00;102201.84;4990837;28;20034;-65
2023/08/20 04:34:21;;;;;;;16.98;3.72;;;;;;;16.78;100.00;102212.38;4990353;28;20034;-62
2023/08/20 04:36:47;;;;;;;13.27;3.55;;;;;;;16.86;100.00;102209.44;4992223;28;20110;-63
2023/08/20 04:39:12;;;;;;;14.20;3.70;;;;;;;16.85;100.00;102215.66;4990316;28;20041;-64
2023/08/20 04:41:37;;;;;;;10.82;3.38;;;;;;;16.85;100.00;102213.88;4992018;28;20027;-62
2023/08/20 04:44:03;;;;;;;16.00;3.65;;;;;;;16.86;100.00;102223.59;4989858;28;20026;-63
2023/08/20 04:46:28;;;;;;;10.18;3.20;;;;;;;16.88;100.00;102221.75;4989978;28;20120;-62
2023/08/20 04:48:54;;;;;;;11.13;3.58;;;;;;;16.91;100.00;102223.41;4989439;28;20030;-62
2023/08/20 04:51:19;;;;;;;10.15;3.45;;;;;;;16.96;100.00;102225.91;4990171;28;20081;-64
2023/08/20 04:53:44;;;;;;;15.70;3.40;;;;;;;16.98;100.00;102222.25;4988682;28;20419;-63
2023/08/20 04:56:10;;;;;;;13.35;3.55;;;;;;;16.98;100.00;102216.91;4989704;28;20030;-62
2023/08/20 04:58:35;;;;;;;15.98;3.70;;;;;;;16.97;100.00;102222.31;4989492;28;20030;-64
2023/08/20 05:01:01;;;;;;;13.88;3.60;;;;;;;16.99;100.00;102220.47;4988839;28;20034;-62
2023/08/20 05:03:26;;;;;;;10.07;3.65;;;;;;;16.96;100.00;102215.25;4988656;28;20030;-63
2023/08/20 05:05:51;;;;;;;14.73;3.63;;;;;;;16.96;100.00;102216.13;4988845;28;20503;-61
2023/08/20 05:08:17;;;;;;;13.77;3.45;;;;;;;17.00;100.00;102222.19;4989155;28;20038;-64
2023/08/20 05:10:42;;;;;;;16.42;3.65;;;;;;;17.00;100.00;102217.75;4988506;28;22182;-60
2023/08/20 05:13:08;;;;;;;9.18;3.42;;;;;;;17.02;100.00;102223.00;4989736;28;20096;-61
2023/08/20 05:15:33;;;;;;;17.60;3.50;;;;;;;17.01;100.00;102215.94;4989448;28;20037;-63
2023/08/20 05:17:59;;;;;;;9.10;3.80;;;;;;;17.04;100.00;102223.81;4988393;28;20592;-61
2023/08/20 05:20:24;;;;;;;17.20;4.28;;;;;;;17.10;100.00;102225.41;4989530;28;20026;-62
2023/08/20 05:22:49;;;;;;;8.68;3.42;;;;;;;17.12;100.00;102221.75;4989050;28;20796;-64
2023/08/20 05:25:15;;;;;;;11.07;3.50;;;;;;;17.18;100.00;102226.84;4988565;28;20033;-64
2023/08/20 05:27:40;;;;;;;16.00;3.70;;;;;;;17.24;100.00;102228.38;4987439;28;20113;-62
2023/08/20 05:30:08;;;;;;;18.55;3.65;;;;;;;17.32;100.00;102229.84;4989572;28;20372;-62
2023/08/20 05:32:35;;;;;;;13.68;3.15;;;;;;;17.42;100.00;102233.88;4985715;28;20124;-63
2023/08/20 05:35:01;;;;;;;11.80;3.53;;;;;;;17.56;100.00;102233.31;4988444;28;20040;-63
2023/08/20 05:37:26;;;;;;;12.32;4.00;;;;;;;17.65;100.00;102234.75;4988305;28;20109;-63
2023/08/20 05:39:51;;;;;;;21.50;3.95;;;;;;;17.75;100.00;102224.53;4987868;28;20065;-62
2023/08/20 05:42:17;;;;;;;9.80;3.30;;;;;;;17.83;100.00;102227.78;4987258;28;20335;-64
2023/08/20 05:44:42;;;;;;;17.30;3.88;;;;;;;17.92;100.00;102222.03;4988085;28;20495;-62
2023/08/20 05:47:07;;;;;;;19.00;4.05;;;;;;;18.01;100.00;102219.91;4986521;28;20026;-61
2023/08/20 05:49:33;;;;;;;11.35;3.42;;;;;;;18.03;100.00;102216.22;4987918;28;20033;-63
2023/08/20 05:51:58;;;;;;;14.85;3.55;;;;;;;18.08;100.00;102205.34;4987607;28;20442;-63
2023/08/20 05:54:24;;;;;;;16.27;4.25;;;;;;;18.18;100.00;102216.50;4995145;28;20374;-60
2023/08/20 05:56:49;;;;;;;14.63;3.80;;;;;;;18.25;100.00;102222.44;5007580;28;20037;-61
2023/08/20 05:59:14;;;;;;;12.63;3.85;;;;;;;18.37;100.00;102226.38;4996168;28;20679;-64
2023/08/20 06:01:40;;;;;;;12.57;3.30;;;;;;;18.47;100.00;102227.69;4986673;28;20054;-65
2023/08/20 06:04:05;;;;;;;10.88;3.42;;;;;;;18.50;100.00;102222.22;4986297;28;20031;-59
2023/08/20 06:06:30;;;;;;;13.85;3.65;;;;;;;18.58;100.00;102211.19;4987291;28;20026;-64
2023/08/20 06:08:56;;;;;;;15.32;3.67;;;;;;;18.68;100.00;102220.50;4985538;28;20037;-63
2023/08/20 06:11:21;;;;;;;18.63;3.67;;;;;;;18.79;100.00;102217.31;4975577;28;20259;-63
2023/08/20 06:13:46;;;;;;;11.50;3.42;;;;;;;18.91;100.00;102218.53;4985592;28;20524;-64
2023/08/20 06:16:12;;;;;;;8.48;2.72;;;;;;;18.97;100.00;102221.88;4987997;28;20109;-62
2023/08/20 06:18:37;;;;;;;14.25;3.42;;;;;;;19.10;100.00;102224.84;4985454;28;20026;-62
2023/08/20 06:21:03;;;;;;;11.32;3.20;;;;;;;19.17;100.00;102227.16;4987925;28;20030;-61
2023/08/20 06:23:28;;;;;;;10.25;3.00;;;;;;;19.34;100.00;102222.78;4986389;28;20457;-61
2023/08/20 06:25:54;;;;;;;15.07;3.20;;;;;;;19.42;100.00;102225.94;4984079;28;20181;-64
2023/08/20 06:28:19;;;;;;;14.77;3.90;;;;;;;19.50;100.00;102225.56;4987788;28;20027;-61
2023/08/20 06:30:45;;;;;;;13.77;3.70;;;;;;;19.57;100.00;102226.13;4986955;28;20061;-64
2023/08/20 06:33:11;;;;;;;12.25;3.40;;;;;;;19.55;100.00;102223.53;4982300;28;20061;-60
2023/08/20 06:35:36;;;;;;;16.70;3.53;;;;;;;19.65;100.00;102231.94;4988057;28;20350;-63
2023/08/20 06:38:02;;;;;;;13.05;3.20;;;;;;;19.75;100.00;102234.16;4986745;28;20023;-62
2023/08/20 06:40:27;;;;;;;9.98;3.20;;;;;;;19.78;100.00;102226.81;4985753;28;20052;-63
2023/08/20 06:42:52;;;;;;;8.88;3.13;;;;;;;19.86;100.00;102234.47;4987594;28;20109;-62
2023/08/20 06:45:18;;;;;;;9.57;3.22;;;;;;;19.95;100.00;102230.44;4987080;28;20061;-62
2023/08/20 06:47:43;;;;;;;14.70;3.00;;;;;;;19.98;100.00;102226.75;4986969;28;20040;-62
2023/08/20 06:50:09;;;;;;;9.02;3.10;;;;;;;19.96;100.00;102234.88;4987038;28;20117;-63
2023/08/20 06:52:34;;;;;;;11.35;3.17;;;;;;;20.01;100.00;102232.84;4987395;28;20058;-63
2023/08/20 06:55:00;;;;;;;12.18;2.60;;;;;;;20.07;100.00;102237.00;4984916;28;20042;-62
2023/08/20 06:57:25;;;;;;;14.02;2.88;;;;;;;20.16;100.00;102241.00;4988008;28;20026;-62
2023/08/20 06:59:50;;;;;;;11.95;3.00;;;;;;;20.28;100.00;102240.34;4988042;28;20034;-63
2023/08/20 07:02:16;;;;;;;9.82;2.90;;;;;;;20.36;100.00;102242.63;4987672;28;20022;-63
2023/08/20 07:04:41;;;;;;;11.05;2.97;;;;;;;20.38;100.00;102247.91;4988018;28;20026;-62
2023/08/20 07:07:07;;;;;;;15.10;2.95;;;;;;;20.43;100.00;102251.19;4988032;28;20679;-62
2023/08/20 07:09:33;;;;;;;11.73;2.92;;;;;;;20.48;100.00;102245.59;4985717;28;20061;-61
2023/08/20 07:11:58;;;;;;;13.00;2.70;;;;;;;20.61;100.00;102254.69;4987908;28;20061;-63
2023/08/20 07:14:24;;;;;;;11.82;2.60;;;;;;;20.55;100.00;102258.56;4987437;28;20054;-61
2023/08/20 07:16:49;;;;;;;13.80;2.97;;;;;;;20.64;100.00;102265.22;4991174;28;20439;-63
2023/08/20 07:19:15;;;;;;;12.55;2.75;;;;;;;20.70;100.00;102262.22;4987037;28;20034;-62
2023/08/20 07:21:40;;;;;;;8.77;2.17;;;;;;;20.81;100.00;102264.31;4985120;28;20053;-64
2023/08/20 07:24:06;;;;;;;13.27;2.28;;;;;;;20.87;100.00;102271.16;4985469;28;20113;-64
2023/08/20 07:26:31;;;;;;;16.05;3.03;;;;;;;20.89;100.00;102268.38;4983680;28;20030;-62
2023/08/20 07:28:57;;;;;;;16.25;2.90;;;;;;;21.01;100.00;102269.56;4985724;28;20038;-63
2023/08/20 07:31:27;;;;;;;13.10;2.30;;;;;;;21.03;100.00;102273.00;4984746;28;20030;-62
2023/08/20 07:33:54;;;;;;;14.95;2.63;;;;;;;21.04;100.00;102269.38;4985520;28;20037;-59
2023/08/20 07:36:23;;;;;;;8.27;2.40;;;;;;;21.12;100.00;102267.13;4988409;28;20037;-61
2023/08/20 07:38:49;;;;;;;;;;;;;;;21.22;100.00;102272.81;4986142;28;20031;-64
2023/08/20 07:41:14;;;;;;;;;;;;;;;21.33;100.00;102275.75;4985459;28;20025;-62
2023/08/20 07:43:39;;;;;;;;;;;;;;;21.30;100.00;102272.38;4986733;28;20025;-63
2023/08/20 07:46:05;;;;;;;;;;;;;;;21.37;100.00;102271.06;4986184;28;19925;-62
2023/08/20 07:48:30;;;;;;;;;;;;;;;21.40;100.00;102281.63;4987966;28;20485;-64
2023/08/20 07:50:55;;;;;;;;;;;;;;;21.44;100.00;102282.31;4986747;28;19918;-65
2023/08/20 07:53:20;;;;;;;;;;;;;;;21.45;100.00;102284.91;4986856;28;19971;-63
2023/08/20 07:55:46;;;;;;;;;;;;;;;21.55;100.00;102281.72;4986232;28;20315;-63
2023/08/20 07:58:11;;;;;;;;;;;;;;;21.59;100.00;102288.63;4990829;28;19922;-62
2023/08/20 08:00:36;;;;;;;;;;;;;;;21.68;100.00;102290.78;4988447;28;19918;-62
2023/08/20 08:03:01;;;;;;;;;;;;;;;21.64;100.00;102293.72;4990853;28;19917;-63
2023/08/20 08:05:27;;;;;;;;;;;;;;;21.71;100.00;102285.19;4988573;28;20217;-64
2023/08/20 08:07:52;;;;;;;;;;;;;;;21.81;100.00;102290.06;4989173;28;20283;-66
2023/08/20 08:10:18;;;;;;;;;;;;;;;21.89;100.00;102293.19;4988753;28;19914;-64
2023/08/20 08:12:43;;;;;;;;;;;;;;;21.88;100.00;102299.47;4989214;28;20438;-64
2023/08/20 08:15:08;;;;;;;;;;;;;;;21.88;100.00;102296.78;4989349;28;19913;-64
2023/08/20 08:17:33;;;;;;;;;;;;;;;22.02;100.00;102303.16;4988526;28;19918;-66
2023/08/20 08:19:59;;;;;;;;;;;;;;;21.99;100.00;102301.53;4994474;28;19921;-66
2023/08/20 08:22:24;;;;;;;;;;;;;;;22.11;100.00;102301.75;4997717;28;19940;-66
2023/08/20 08:24:49;;;;;;;;;;;;;;;22.24;100.00;102310.78;5006836;28;19920;-63
2023/08/20 08:27:15;;;;;;;;;;;;;;;22.21;100.00;102309.16;4998570;28;19918;-65
2023/08/20 08:29:40;;;;;;;;;;;;;;;22.25;100.00;102303.59;5004921;28;20521;-64
2023/08/20 08:32:05;;;;;;;;;;;;;;;22.28;100.00;102303.41;4989539;28;19917;-65
2023/08/20 08:34:30;;;;;;;;;;;;;;;22.34;100.00;102303.06;4990462;28;19920;-65
2023/08/20 08:36:55;;;;;;;;;;;;;;;22.34;100.00;102303.91;4989541;28;20287;-65
2023/08/20 08:39:21;;;;;;;;;;;;;;;22.42;100.00;102300.75;4989750;28;19929;-61
2023/08/20 08:41:47;;;;;;;;;;;;;;;22.55;100.00;102310.75;4989200;28;19921;-65
2023/08/20 08:44:12;;;;;;;;;;;;;;;22.57;100.00;102311.50;5005316;28;20719;-65
2023/08/20 08:46:38;;;;;;;;;;;;;;;22.60;100.00;102316.69;4986984;28;19989;-63
2023/08/20 08:49:04;;;;;;;;;;;;;;;22.65;100.00;102311.94;4989021;28;19914;-64
2023/08/20 08:51:29;;;;;;;;;;;;;;;22.64;100.00;102315.59;4987768;28;19914;-64
2023/08/20 08:53:54;;;;;;;;;;;;;;;22.75;100.00;102314.88;4984564;28;19921;-64
2023/08/20 08:56:19;;;;;;;;;;;;;;;22.76;100.00;102308.56;4989043;28;19918;-60
2023/08/20 08:58:45;;;;;;;;;;;;;;;22.78;100.00;102319.22;4999745;28;19918;-61
2023/08/20 09:01:10;;;;;;;;;;;;;;;22.75;100.00;102319.41;4988672;28;19917;-63
2023/08/20 09:03:35;;;;;;;;;;;;;;;22.83;100.00;102322.47;4988076;28;20352;-65
2023/08/20 09:06:03;;;;;;;;;;;;;;;23.00;100.00;102320.53;4987997;28;20379;-61
2023/08/20 09:08:29;;;;;;;;;;;;;;;23.08;100.00;102320.91;4987240;28;19973;-58
2023/08/20 09:10:55;;;;;;;;;;;;;;;23.08;100.00;102321.78;4989847;28;19961;-61
2023/08/20 09:13:24;;;;;;;;;;;;;;;23.09;100.00;102325.34;4988988;28;19976;-61
2023/08/20 09:15:53;;;;;;;;;;;;;;;23.20;100.00;102317.44;4989865;28;19921;-61
2023/08/20 09:18:18;;;;;;;;;;;;;;;23.18;99.02;102322.03;4986971;28;19910;-61
2023/08/20 09:20:43;;;;;;;;;;;;;;;23.34;98.05;102329.13;4987868;28;19973;-61
2023/08/20 09:23:13;;;;;;;;;;;;;;;23.44;97.64;102322.19;4986339;28;19910;-62
2023/08/20 09:25:38;;;;;;;;;;;;;;;23.44;100.00;102324.03;4984917;28;20036;-62
2023/08/20 09:28:04;;;;;;;;;;;;;;;23.52;100.00;102326.22;4988537;28;19996;-57
2023/08/20 09:30:29;;;;;;;;;;;;;;;23.61;98.54;102317.53;4988009;28;19924;-66
2023/08/20 09:33:04;;;;;;;;;;;;;;;23.48;100.00;102314.81;4989714;28;20267;-62
2023/08/20 09:35:29;;;;;;;;;;;;;;;23.62;99.33;102316.56;4985009;28;19988;-59
2023/08/20 09:38:01;;;;;;;;;;;;;;;23.69;99.25;102323.25;4977027;28;20340;-65
2023/08/20 09:40:26;;;;;;;;;;;;;;;23.75;98.30;102316.59;4986011;28;20012;-64
2023/08/20 09:42:52;;;;;;;;;;;;;;;23.82;98.35;102320.63;4991199;28;20370;-61
2023/08/20 09:45:18;;;;;;;;;;;;;;;23.89;97.61;102323.75;4993584;28;19922;-62
2023/08/20 09:47:43;;;;;;;;;;;;;;;23.84;96.31;102329.44;4990854;28;20422;-64
2023/08/20 09:50:10;;;;;;;;;;;;;;;23.71;97.22;102329.41;4987384;28;19913;-62
2023/08/20 09:52:38;;;;;;;;;;;;;;;23.92;97.23;102328.06;4986372;28;19917;-63
2023/08/20 09:55:07;;;;;;;;;;;;;;;24.05;96.71;102331.63;4987172;28;19913;-61
2023/08/20 09:57:32;;;;;;;;;;;;;;;24.17;96.56;102321.88;4988615;28;19972;-62
2023/08/20 09:59:58;;;;;;;;;;;;;;;24.16;97.90;102336.31;4995896;28;19957;-62
2023/08/20 10:02:23;;;;;;;;;;;;;;;24.30;96.41;102343.47;4985313;28;19914;-64
2023/08/20 10:04:48;;;;;;;;;;;;;;;24.34;93.78;102331.50;4986532;28;19933;-62
2023/08/20 10:07:13;;;;;;;;;;;;;;;24.41;92.56;102333.78;4989931;28;19913;-64
2023/08/20 10:09:39;;;;;;;;;;;;;;;24.43;93.67;102332.69;4985439;28;19925;-64
2023/08/20 10:12:05;;;;;;;;;;;;;;;24.48;90.70;102330.53;4985288;28;20345;-62
2023/08/20 10:14:30;;;;;;;;;;;;;;;24.55;90.70;102336.34;4989991;28;20603;-63
2023/08/20 10:16:55;;;;;;;;;;;;;;;24.58;89.55;102341.53;4987653;28;20455;-63
2023/08/20 10:19:20;;;;;;;;;;;;;;;24.73;89.77;102330.63;4993635;28;19917;-61
2023/08/20 10:21:46;;;;;;;;;;;;;;;24.72;92.16;102318.97;4986831;28;19918;-60
2023/08/20 10:24:16;;;;;;;;;;;;;;;24.82;91.44;102319.19;4987027;28;19969;-62
2023/08/20 10:26:41;;;;;;;;;;;;;;;25.02;92.87;102321.44;5000435;28;19913;-61
2023/08/20 10:29:25;;;;;;;;;;;;;;;25.18;91.48;102316.66;5008755;28;19975;-62
2023/08/20 10:31:50;;;;;;;;;;;;;;;25.30;88.36;102331.09;4995320;28;19952;-61
2023/08/20 10:34:31;;;;;;;;;;;;;;;25.21;85.27;102327.22;5004503;28;19948;-60
2023/08/20 10:36:56;;;;;;;;;;;;;;;25.05;87.35;102321.22;4988356;28;20399;-62
2023/08/20 10:39:25;;;;;;;;;;;;;;;25.06;89.39;102312.16;4988280;28;19915;-63
2023/08/20 10:41:51;;;;;;;;;;;;;;;25.20;84.57;102317.38;4988653;28;19920;-64
2023/08/20 10:44:16;;;;;;;;;;;;;;;25.29;83.15;102317.72;4998172;28;19917;-61
2023/08/20 10:46:49;;;;;;;;;;;;;;;25.43;84.49;102319.38;4986928;28;20646;-61
2023/08/20 10:49:15;;;;;;;;;;;;;;;25.44;85.33;102319.28;4988429;28;19918;-62
2023/08/20 10:51:41;;;;;;;;;;;;;;;25.67;80.66;102329.34;5002961;28;20279;-64
2023/08/20 10:54:07;;;;;;;;;;;;;;;25.65;83.16;102326.75;4987432;28;20365;-65
2023/08/20 10:56:48;;;;;;;;;;;;;;;25.75;82.14;102324.22;4988655;28;19921;-62
2023/08/20 10:59:15;;;;;;;;;;;;;;;25.80;81.27;102318.47;5003018;28;20269;-59
2023/08/20 11:01:40;;;;;;;;;;;;;;;25.91;81.55;102312.25;4988189;28;19914;-62
2023/08/20 11:04:07;;;;;;;;;;;;;;;26.04;80.35;102326.53;4988039;28;20319;-65
2023/08/20 11:06:32;;;;;;;;;;;;;;;26.11;78.30;102318.81;4988534;28;19976;-66
2023/08/20 11:08:57;;;;;;;;;;;;;;;26.12;79.73;102316.00;4999280;28;20391;-61
2023/08/20 11:11:23;;;;;;;;;;;;;;;26.18;78.54;102325.44;5003832;28;19914;-63
2023/08/20 11:13:48;;;;;;;;;;;;;;;26.10;74.45;102322.50;4989700;28;19941;-65
2023/08/20 11:16:13;;;;;;;;;;;;;;;26.24;75.99;102324.97;4989825;28;19983;-64
2023/08/20 11:18:39;;;;;;;;;;;;;;;26.27;72.30;102320.34;4990819;28;19917;-63
2023/08/20 11:21:04;;;;;;;;;;;;;;;26.36;73.30;102322.31;4988231;28;19909;-60
2023/08/20 11:23:29;;;;;;;;;;;;;;;26.52;71.53;102322.00;4987943;28;20374;-64
2023/08/20 11:25:55;;;;;;;;;;;;;;;26.68;72.20;102320.75;4988022;28;20305;-61
2023/08/20 11:28:21;;;;;;;;;;;;;;;26.79;71.33;102319.91;4988219;28;19963;-60
2023/08/20 11:30:46;;;;;;;;;;;;;;;26.75;72.31;102313.84;5008067;28;19920;-63
2023/08/20 11:33:11;;;;;;;;;;;;;;;26.88;66.87;102319.16;5000394;28;19921;-63